createdAt,value
2019-02-28T00:06:29.642Z,67.10
2019-02-28T00:08:58.728Z,67.60
2019-02-28T00:11:27.713Z,67.50
2019-02-28T00:13:57.218Z,67.30
2019-02-28T00:16:26.262Z,67.40
2019-02-28T00:18:55.170Z,67.10
2019-02-28T00:21:24.262Z,66.80
2019-02-28T00:23:56.434Z,66.70
2019-02-28T00:26:23.979Z,66.50
2019-02-28T00:28:53.631Z,67.00
2019-02-28T00:31:22.702Z,66.20
2019-02-28T00:33:51.931Z,66.10
2019-02-28T00:36:20.923Z,66.00
2019-02-28T00:38:49.966Z,65.90
2019-02-28T00:41:18.958Z,65.80
2019-02-28T00:43:48.210Z,65.80
2019-02-28T00:46:17.257Z,65.90
2019-02-28T00:48:46.691Z,65.80
2019-02-28T00:51:16.395Z,65.80
2019-02-28T00:53:45.445Z,65.70
2019-02-28T00:56:17.585Z,65.80
2019-02-28T00:58:45.522Z,65.70
2019-02-28T01:01:14.491Z,65.70
2019-02-28T01:03:43.536Z,65.70
2019-02-28T01:06:12.795Z,65.60
2019-02-28T01:08:42.750Z,65.70
2019-02-28T01:11:13.249Z,65.60
2019-02-28T01:13:42.873Z,65.60
2019-02-28T01:16:11.941Z,65.50
2019-02-28T01:18:40.922Z,65.50
2019-02-28T01:21:09.984Z,65.50
2019-02-28T01:23:39.166Z,65.50
2019-02-28T01:26:08.212Z,65.40
2019-02-28T01:28:37.979Z,65.50
2019-02-28T01:31:06.838Z,65.30
2019-02-28T01:33:37.665Z,65.40
2019-02-28T01:36:07.299Z,65.30
2019-02-28T01:38:36.280Z,65.30
2019-02-28T01:41:05.309Z,65.50
2019-02-28T01:43:34.243Z,65.50
2019-02-28T01:46:03.111Z,65.40
2019-02-28T01:48:32.159Z,65.30
2019-02-28T01:51:01.688Z,65.40
2019-02-28T01:53:31.087Z,65.50
2019-02-28T01:56:02.399Z,65.50
2019-02-28T01:58:30.899Z,65.50
2019-02-28T02:00:59.736Z,65.60
2019-02-28T02:03:28.734Z,65.50
2019-02-28T02:05:57.936Z,65.50
2019-02-28T02:08:27.392Z,65.60
2019-02-28T02:10:56.777Z,65.70
2019-02-28T02:13:26.566Z,65.70
2019-02-28T02:15:55.649Z,65.70
2019-02-28T02:18:24.754Z,65.50
2019-02-28T02:20:53.818Z,65.50
2019-02-28T02:23:22.794Z,65.50
2019-02-28T02:25:51.838Z,65.50
2019-02-28T02:28:21.324Z,65.50
2019-02-28T02:30:51.956Z,65.50
2019-02-28T02:33:21.190Z,65.60
2019-02-28T02:35:50.337Z,65.60
2019-02-28T02:38:19.404Z,65.60
2019-02-28T02:40:48.474Z,65.60
2019-02-28T02:43:21.945Z,65.60
2019-02-28T02:45:48.357Z,65.60
2019-02-28T02:48:17.419Z,65.90
2019-02-28T02:50:46.854Z,65.40
2019-02-28T02:53:15.826Z,65.40
2019-02-28T02:55:44.871Z,65.30
2019-02-28T02:58:13.971Z,65.30
2019-02-28T03:00:49.289Z,65.50
2019-02-28T03:03:13.850Z,65.50
2019-02-28T03:05:43.571Z,65.40
2019-02-28T03:08:12.770Z,65.50
2019-02-28T03:10:42.200Z,65.60
2019-02-28T03:13:11.777Z,65.40
2019-02-28T03:15:40.760Z,65.60
2019-02-28T03:18:09.807Z,65.50
2019-02-28T03:20:41.315Z,65.60
2019-02-28T03:23:10.465Z,65.60
2019-02-28T03:25:39.523Z,65.60
2019-02-28T03:28:08.559Z,65.50
2019-02-28T03:30:37.524Z,65.60
2019-02-28T03:33:06.603Z,65.50
2019-02-28T03:35:43.259Z,65.60
2019-02-28T03:38:11.635Z,65.30
2019-02-28T03:40:40.168Z,65.50
2019-02-28T03:43:09.070Z,65.50
2019-02-28T03:45:38.120Z,65.30
2019-02-28T03:48:07.109Z,65.10
2019-02-28T03:50:36.531Z,65.30
2019-02-28T03:53:05.618Z,65.60
2019-02-28T03:55:39.876Z,65.70
2019-02-28T03:58:05.841Z,65.60
2019-02-28T04:00:35.229Z,65.40
2019-02-28T04:03:04.313Z,65.50
2019-02-28T04:05:33.823Z,65.50
2019-02-28T04:08:03.224Z,65.60
2019-02-28T04:10:33.356Z,65.50
2019-02-28T04:13:02.375Z,65.60
2019-02-28T04:15:31.424Z,65.50
2019-02-28T04:18:06.613Z,65.50
2019-02-28T04:20:35.946Z,65.50
2019-02-28T04:23:02.470Z,66.20
2019-02-28T04:25:31.560Z,65.40
2019-02-28T04:28:00.667Z,65.50
2019-02-28T04:30:33.324Z,65.70
2019-02-28T04:33:02.575Z,65.60
2019-02-28T04:35:31.799Z,65.50
2019-02-28T04:38:00.878Z,65.50
2019-02-28T04:40:30.163Z,65.40
2019-02-28T04:42:59.459Z,65.40
2019-02-28T04:45:28.441Z,65.40
2019-02-28T04:47:57.472Z,65.50
2019-02-28T04:50:31.221Z,65.50
2019-02-28T04:52:57.811Z,65.40
2019-02-28T04:55:26.802Z,65.50
2019-02-28T04:57:55.883Z,65.40
2019-02-28T05:00:24.940Z,65.50
2019-02-28T05:02:54.998Z,65.50
2019-02-28T05:05:24.997Z,65.50
2019-02-28T05:07:54.149Z,65.50
2019-02-28T05:10:23.602Z,65.40
2019-02-28T05:12:52.894Z,65.40
2019-02-28T05:15:21.950Z,65.50
2019-02-28T05:17:53.052Z,65.40
2019-02-28T05:20:22.009Z,65.40
2019-02-28T05:22:50.981Z,65.40
2019-02-28T05:25:20.023Z,65.30
2019-02-28T05:27:49.083Z,65.20
2019-02-28T05:30:19.626Z,65.10
2019-02-28T05:32:48.726Z,65.10
2019-02-28T05:35:17.630Z,65.10
2019-02-28T05:37:48.303Z,64.90
2019-02-28T05:40:17.650Z,64.80
2019-02-28T05:42:46.934Z,64.60
2019-02-28T05:45:15.998Z,64.60
2019-02-28T05:47:47.220Z,64.70
2019-02-28T05:50:17.439Z,64.80
2019-02-28T05:52:46.920Z,65.00
2019-02-28T05:55:16.009Z,65.30
2019-02-28T05:57:45.092Z,65.40
2019-02-28T06:00:15.409Z,65.20
2019-02-28T06:02:44.391Z,65.10
2019-02-28T06:05:13.701Z,65.20
2019-02-28T06:07:43.458Z,65.20
2019-02-28T06:10:13.186Z,65.30
2019-02-28T06:12:43.687Z,65.20
2019-02-28T06:15:13.018Z,65.20
2019-02-28T06:17:42.582Z,65.20
2019-02-28T06:20:11.587Z,65.20
2019-02-28T06:22:40.563Z,65.30
2019-02-28T06:25:09.712Z,65.30
2019-02-28T06:27:41.765Z,65.30
2019-02-28T06:30:10.807Z,65.30
2019-02-28T06:32:39.886Z,65.40
2019-02-28T06:35:08.945Z,65.30
2019-02-28T06:37:38.372Z,65.30
2019-02-28T06:40:11.730Z,65.20
2019-02-28T06:42:43.455Z,65.10
2019-02-28T06:45:13.350Z,65.10
2019-02-28T06:47:48.179Z,65.20
2019-02-28T06:50:14.398Z,65.00
2019-02-28T06:52:43.375Z,64.90
2019-02-28T06:55:15.877Z,64.80
2019-02-28T06:57:44.902Z,64.80
2019-02-28T07:00:14.272Z,64.90
2019-02-28T07:02:44.159Z,64.80
2019-02-28T07:05:13.222Z,64.60
2019-02-28T07:07:45.826Z,64.50
2019-02-28T07:10:13.419Z,64.60
2019-02-28T07:12:43.019Z,64.30
2019-02-28T07:15:12.029Z,64.20
2019-02-28T07:17:42.613Z,64.20
2019-02-28T07:20:13.354Z,64.40
2019-02-28T07:22:42.420Z,64.60
2019-02-28T07:25:12.777Z,64.40
2019-02-28T07:27:42.410Z,64.30
2019-02-28T07:30:18.732Z,64.40
2019-02-28T07:32:45.690Z,64.50
2019-02-28T07:35:14.745Z,64.40
2019-02-28T07:37:43.794Z,64.30
2019-02-28T07:40:16.160Z,64.30
2019-02-28T07:42:44.018Z,64.30
2019-02-28T07:45:13.312Z,64.20
2019-02-28T07:47:42.915Z,64.20
2019-02-28T07:50:12.027Z,64.20
2019-02-28T07:52:41.082Z,64.20
2019-02-28T07:55:10.834Z,64.10
2019-02-28T07:57:39.852Z,64.10
2019-02-28T08:00:17.188Z,63.80
2019-02-28T08:02:44.214Z,63.90
2019-02-28T08:05:13.675Z,64.00
2019-02-28T08:07:42.733Z,63.90
2019-02-28T08:10:15.973Z,63.90
2019-02-28T08:12:44.544Z,63.90
2019-02-28T08:15:21.105Z,63.80
2019-02-28T08:17:47.823Z,64.20
2019-02-28T08:20:16.875Z,65.20
2019-02-28T08:22:45.936Z,65.10
2019-02-28T08:25:15.006Z,64.90
2019-02-28T08:27:44.106Z,64.80
2019-02-28T08:30:16.233Z,64.60
2019-02-28T08:32:47.094Z,64.50
2019-02-28T08:35:16.399Z,64.60
2019-02-28T08:37:45.458Z,64.50
2019-02-28T08:40:17.553Z,64.40
2019-02-28T08:42:46.598Z,64.10
2019-02-28T08:45:15.638Z,64.30
2019-02-28T08:47:45.312Z,64.20
2019-02-28T08:50:20.606Z,64.20
2019-02-28T08:52:49.391Z,65.60
2019-02-28T08:55:27.883Z,66.40
2019-02-28T08:57:55.632Z,66.40
2019-02-28T09:00:20.851Z,65.80
2019-02-28T09:02:52.893Z,64.90
2019-02-28T09:05:25.529Z,64.50
2019-02-28T09:07:52.027Z,64.20
2019-02-28T09:10:21.830Z,64.20
2019-02-28T09:12:51.358Z,63.90
2019-02-28T09:15:20.841Z,63.90
2019-02-28T09:17:49.911Z,63.70
2019-02-28T09:20:19.049Z,63.70
2019-02-28T09:22:48.558Z,63.50
2019-02-28T09:25:21.136Z,63.80
2019-02-28T09:27:48.871Z,63.60
2019-02-28T09:30:30.678Z,63.60
2019-02-28T09:33:00.005Z,63.60
2019-02-28T09:35:29.060Z,63.70
2019-02-28T09:38:00.161Z,63.60
2019-02-28T09:40:29.448Z,63.50
2019-02-28T09:42:59.658Z,63.30
2019-02-28T09:45:30.156Z,63.30
2019-02-28T09:48:01.863Z,63.50
2019-02-28T09:50:30.022Z,63.20
2019-02-28T09:52:59.375Z,63.00
2019-02-28T09:55:34.274Z,62.90
2019-02-28T09:57:59.311Z,62.70
2019-02-28T10:00:29.406Z,62.50
2019-02-28T10:02:58.629Z,62.40
2019-02-28T10:05:27.723Z,62.30
2019-02-28T10:08:01.489Z,62.50
2019-02-28T10:10:28.159Z,62.60
2019-02-28T10:12:58.014Z,62.70
2019-02-28T10:15:27.575Z,62.60
2019-02-28T10:17:56.630Z,62.70
2019-02-28T10:20:28.241Z,62.70
2019-02-28T10:22:57.946Z,62.60
2019-02-28T10:25:27.022Z,62.80
2019-02-28T10:28:01.163Z,62.90
2019-02-28T10:30:31.600Z,62.90
2019-02-28T10:32:57.494Z,62.90
2019-02-28T10:35:26.639Z,62.80
2019-02-28T10:37:58.390Z,62.80
2019-02-28T10:40:26.559Z,62.90
2019-02-28T10:42:55.683Z,63.00
2019-02-28T10:45:26.548Z,62.90
2019-02-28T10:47:55.530Z,63.00
2019-02-28T10:50:25.928Z,62.80
2019-02-28T10:52:55.670Z,62.80
2019-02-28T10:55:24.650Z,62.70
2019-02-28T10:57:53.707Z,62.10
2019-02-28T11:00:32.746Z,62.70
2019-02-28T11:03:02.179Z,62.70
2019-02-28T11:05:32.286Z,62.60
2019-02-28T11:08:02.276Z,63.30
2019-02-28T11:10:38.798Z,62.30
2019-02-28T11:13:11.614Z,62.30
2019-02-28T11:15:41.658Z,62.30
2019-02-28T11:18:10.886Z,62.40
2019-02-28T11:20:40.638Z,63.00
2019-02-28T11:23:14.339Z,62.40
2019-02-28T11:25:40.513Z,62.40
2019-02-28T11:28:09.571Z,62.50
2019-02-28T11:30:43.970Z,62.50
2019-02-28T11:33:09.327Z,62.50
2019-02-28T11:35:38.406Z,62.50
2019-02-28T11:38:07.614Z,63.20
2019-02-28T11:40:36.960Z,62.50
2019-02-28T11:43:06.523Z,62.60
2019-02-28T11:45:36.159Z,62.60
2019-02-28T11:48:06.067Z,62.60
2019-02-28T11:50:35.225Z,62.60
2019-02-28T11:53:05.880Z,62.50
2019-02-28T11:55:34.974Z,62.50
2019-02-28T11:58:04.220Z,62.60
2019-02-28T12:00:35.678Z,62.70
2019-02-28T12:03:05.587Z,62.80
2019-02-28T12:05:35.450Z,62.90
2019-02-28T12:08:09.076Z,62.90
2019-02-28T12:10:35.186Z,63.00
2019-02-28T12:13:04.582Z,64.30
2019-02-28T12:15:38.089Z,66.50
2019-02-28T12:18:05.388Z,68.20
2019-02-28T12:20:35.555Z,69.40
2019-02-28T12:23:04.701Z,71.40
2019-02-28T12:25:33.760Z,74.20
2019-02-28T12:28:06.333Z,76.60
2019-02-28T12:30:33.670Z,75.20
2019-02-28T12:33:02.759Z,74.50
2019-02-28T12:35:37.295Z,73.30
2019-02-28T12:38:03.139Z,70.20
2019-02-28T12:40:32.234Z,68.20
2019-02-28T12:43:01.354Z,67.10
2019-02-28T12:45:33.052Z,66.70
2019-02-28T12:48:02.122Z,66.30
2019-02-28T12:50:31.747Z,66.00
2019-02-28T12:53:00.835Z,65.90
2019-02-28T12:55:30.003Z,65.70
2019-02-28T12:57:59.190Z,65.40
2019-02-28T13:00:32.874Z,65.40
2019-02-28T13:03:02.537Z,65.30
2019-02-28T13:05:31.715Z,65.20
2019-02-28T13:08:00.703Z,65.30
2019-02-28T13:10:31.228Z,65.30
2019-02-28T13:13:06.394Z,65.30
2019-02-28T13:15:32.170Z,65.50
2019-02-28T13:18:07.128Z,64.90
2019-02-28T13:20:33.520Z,65.50
2019-02-28T13:23:03.090Z,65.60
2019-02-28T13:25:32.122Z,65.60
2019-02-28T13:28:01.376Z,65.70
2019-02-28T13:30:30.595Z,65.80
2019-02-28T13:32:59.717Z,65.70
2019-02-28T13:35:30.594Z,65.70
2019-02-28T13:37:59.656Z,65.90
2019-02-28T13:40:28.634Z,66.10
2019-02-28T13:42:58.393Z,66.00
2019-02-28T13:45:27.482Z,66.10
2019-02-28T13:47:56.550Z,66.10
2019-02-28T13:50:27.213Z,66.10
2019-02-28T13:52:56.273Z,66.20
2019-02-28T13:55:25.365Z,66.00
2019-02-28T13:57:54.399Z,66.20
2019-02-28T14:00:25.175Z,66.10
2019-02-28T14:02:56.286Z,66.10
2019-02-28T14:05:26.494Z,66.10
2019-02-28T14:07:55.555Z,66.00
2019-02-28T14:10:24.736Z,66.00
2019-02-28T14:12:57.947Z,66.00
2019-02-28T14:15:30.635Z,66.00
2019-02-28T14:18:00.262Z,65.90
2019-02-28T14:20:29.330Z,66.00
2019-02-28T14:22:59.770Z,66.00
2019-02-28T14:25:28.822Z,65.90
2019-02-28T14:28:00.191Z,65.90
2019-02-28T14:30:29.235Z,65.90
2019-02-28T14:32:59.124Z,66.00
2019-02-28T14:35:33.930Z,66.50
2019-02-28T14:37:59.223Z,65.80
2019-02-28T14:40:28.299Z,65.70
2019-02-28T14:42:57.298Z,65.60
2019-02-28T14:45:26.658Z,65.70
2019-02-28T14:47:57.353Z,65.50
2019-02-28T14:50:26.609Z,65.60
2019-02-28T14:52:57.006Z,65.40
2019-02-28T14:55:26.123Z,65.30
2019-02-28T14:57:55.306Z,65.20
2019-02-28T15:00:28.494Z,65.00
2019-02-28T15:02:59.501Z,64.90
2019-02-28T15:05:29.713Z,64.90
2019-02-28T15:07:58.866Z,64.80
2019-02-28T15:10:28.325Z,64.90
2019-02-28T15:12:59.762Z,65.00
2019-02-28T15:15:29.210Z,65.00
2019-02-28T15:17:59.413Z,64.90
2019-02-28T15:20:31.582Z,65.00
2019-02-28T15:22:59.593Z,65.00
2019-02-28T15:25:29.362Z,65.10
2019-02-28T15:27:58.412Z,65.20
2019-02-28T15:30:30.432Z,65.30
2019-02-28T15:32:59.982Z,65.30
2019-02-28T15:35:29.011Z,65.40
2019-02-28T15:37:58.056Z,65.30
2019-02-28T15:40:32.655Z,65.30
2019-02-28T15:43:01.640Z,65.40
2019-02-28T15:45:30.695Z,65.50
2019-02-28T15:48:00.454Z,65.50
2019-02-28T15:50:29.786Z,65.60
2019-02-28T15:52:59.260Z,65.50
2019-02-28T15:55:28.534Z,65.60
2019-02-28T15:57:57.614Z,65.60
2019-02-28T16:00:28.833Z,65.60
2019-02-28T16:02:58.358Z,65.60
2019-02-28T16:05:27.410Z,65.60
2019-02-28T16:07:56.874Z,65.60
2019-02-28T16:10:28.485Z,65.70
2019-02-28T16:12:59.020Z,65.60
2019-02-28T16:15:28.522Z,66.40
2019-02-28T16:17:58.574Z,65.40
2019-02-28T16:20:28.503Z,64.50
2019-02-28T16:22:58.426Z,63.50
2019-02-28T16:25:30.951Z,62.30
2019-02-28T16:27:59.923Z,61.90
2019-02-28T16:30:32.000Z,61.20
2019-02-28T16:32:59.937Z,60.80
2019-02-28T16:35:29.154Z,60.90
2019-02-28T16:37:58.129Z,60.20
2019-02-28T16:40:27.315Z,60.80
2019-02-28T16:42:56.640Z,60.30
2019-02-28T16:45:37.523Z,60.00
2019-02-28T16:48:07.119Z,59.90
2019-02-28T16:50:36.243Z,59.90
2019-02-28T16:53:06.070Z,60.10
2019-02-28T16:55:35.655Z,59.80
2019-02-28T16:58:04.741Z,59.90
2019-02-28T17:00:34.590Z,60.20
2019-02-28T17:03:05.920Z,61.20
2019-02-28T17:05:34.493Z,60.30
2019-02-28T17:08:03.562Z,60.00
2019-02-28T17:10:34.607Z,60.10
2019-02-28T17:13:35.467Z,60.40
2019-02-28T17:16:33.630Z,60.60
2019-02-28T17:19:05.091Z,60.40
2019-02-28T17:21:34.154Z,60.80
2019-02-28T17:24:03.324Z,61.00
2019-02-28T17:27:06.313Z,61.10
2019-02-28T17:29:53.765Z,61.20
2019-02-28T17:32:23.218Z,60.80
2019-02-28T17:34:52.254Z,61.20
2019-02-28T17:37:26.001Z,61.30
2019-02-28T17:39:52.040Z,61.50
2019-02-28T17:42:21.341Z,61.60
2019-02-28T17:45:02.758Z,61.50
2019-02-28T17:48:02.085Z,61.40
2019-02-28T17:50:51.903Z,61.40
2019-02-28T17:54:08.400Z,61.60
2019-02-28T17:57:36.702Z,61.70
2019-02-28T18:00:30.043Z,61.30
2019-02-28T18:03:55.911Z,61.40
2019-02-28T18:06:49.816Z,61.60
2019-02-28T18:10:06.470Z,61.40
2019-02-28T18:13:10.947Z,61.40
2019-02-28T18:16:12.551Z,61.70
2019-02-28T18:19:18.170Z,61.50
2019-02-28T18:22:30.086Z,61.40
2019-02-28T18:25:30.027Z,61.60
2019-02-28T18:28:41.963Z,61.90
2019-02-28T18:31:19.076Z,61.60
2019-02-28T18:33:50.064Z,61.70
2019-02-28T18:36:21.010Z,61.80
2019-02-28T18:38:50.066Z,62.00
2019-02-28T18:41:19.357Z,61.80
2019-02-28T18:43:48.406Z,61.80
2019-02-28T18:46:17.460Z,61.80
2019-02-28T18:48:46.947Z,61.90
2019-02-28T18:51:16.729Z,62.10
2019-02-28T18:53:45.954Z,62.30
2019-02-28T18:56:15.075Z,62.30
2019-02-28T18:58:44.175Z,62.60
2019-02-28T19:01:13.223Z,62.60
2019-02-28T19:03:42.597Z,62.80
2019-02-28T19:06:11.922Z,62.80
2019-02-28T19:08:40.891Z,62.80
2019-02-28T19:11:09.963Z,62.80
2019-02-28T19:13:38.969Z,62.80
2019-02-28T19:16:08.278Z,62.90
2019-02-28T19:18:38.035Z,63.00
2019-02-28T19:21:06.999Z,63.00
2019-02-28T19:23:35.972Z,63.00
2019-02-28T19:26:05.133Z,63.10
2019-02-28T19:28:34.212Z,63.50
2019-02-28T19:31:03.304Z,63.60
2019-02-28T19:33:32.362Z,63.80
2019-02-28T19:36:01.550Z,63.90
2019-02-28T19:38:30.742Z,64.20
2019-02-28T19:40:59.831Z,64.30
2019-02-28T19:43:28.822Z,64.50
2019-02-28T19:45:57.802Z,64.50
2019-02-28T19:48:27.568Z,64.60
2019-02-28T19:50:56.536Z,64.60
2019-02-28T19:53:25.586Z,64.50
2019-02-28T19:55:56.622Z,64.50
2019-02-28T19:58:25.359Z,64.60
2019-02-28T20:00:54.413Z,64.60
2019-02-28T20:03:23.978Z,64.70
2019-02-28T20:05:53.031Z,64.80
2019-02-28T20:08:22.074Z,64.70
2019-02-28T20:10:51.078Z,64.80
2019-02-28T20:13:20.128Z,64.90
2019-02-28T20:15:49.177Z,65.20
2019-02-28T20:18:19.164Z,65.40
2019-02-28T20:20:48.403Z,65.50
2019-02-28T20:23:17.366Z,65.70
2019-02-28T20:25:46.433Z,65.60
2019-02-28T20:28:15.416Z,65.50
2019-02-28T20:30:44.454Z,65.30
2019-02-28T20:33:13.518Z,65.30
2019-02-28T20:35:42.493Z,65.30
2019-02-28T20:38:11.686Z,65.40
2019-02-28T20:40:41.060Z,65.60
2019-02-28T20:43:10.310Z,65.80
2019-02-28T20:45:39.281Z,65.90
2019-02-28T20:48:08.597Z,66.00
2019-02-28T20:50:39.947Z,66.10
2019-02-28T20:53:08.951Z,66.20
2019-02-28T20:55:38.031Z,66.10
2019-02-28T20:58:07.087Z,66.30
2019-02-28T21:00:36.134Z,66.30
2019-02-28T21:03:05.619Z,69.00
2019-02-28T21:05:34.518Z,68.90
2019-02-28T21:08:03.487Z,69.30
2019-02-28T21:10:32.485Z,69.20
2019-02-28T21:13:01.522Z,69.40
2019-02-28T21:15:30.578Z,69.70
2019-02-28T21:17:59.880Z,69.90
2019-02-28T21:20:29.122Z,70.70
2019-02-28T21:22:59.195Z,72.10
2019-02-28T21:25:28.394Z,71.50
2019-02-28T21:27:57.455Z,70.90
2019-02-28T21:30:26.677Z,70.70
2019-02-28T21:32:55.738Z,70.60
2019-02-28T21:35:24.807Z,70.30
2019-02-28T21:37:53.861Z,70.30
2019-02-28T21:40:24.187Z,70.10
2019-02-28T21:42:53.249Z,69.60
2019-02-28T21:45:22.251Z,69.40
2019-02-28T21:47:51.486Z,70.10
2019-02-28T21:50:20.530Z,70.50
2019-02-28T21:52:49.514Z,69.70
2019-02-28T21:55:18.786Z,69.70
2019-02-28T21:57:47.833Z,69.70
2019-02-28T22:00:19.514Z,70.00
2019-02-28T22:02:48.806Z,70.00
2019-02-28T22:05:17.782Z,69.90
2019-02-28T22:07:46.853Z,69.90
2019-02-28T22:10:16.386Z,70.00
2019-02-28T22:12:45.446Z,69.80
2019-02-28T22:15:16.111Z,69.60
2019-02-28T22:17:45.847Z,69.40
2019-02-28T22:20:16.420Z,69.20
2019-02-28T22:22:45.449Z,69.10
2019-02-28T22:25:15.033Z,69.10
2019-02-28T22:27:44.067Z,69.30
2019-02-28T22:30:46.042Z,69.30
2019-02-28T22:33:23.395Z,69.50
2019-02-28T22:35:55.075Z,69.70
2019-02-28T22:38:24.118Z,69.20
2019-02-28T22:40:53.093Z,69.10
2019-02-28T22:43:22.186Z,69.20
2019-02-28T22:45:51.240Z,69.00
2019-02-28T22:48:20.289Z,69.00
2019-02-28T22:50:49.380Z,68.70
2019-02-28T22:53:18.436Z,68.90
2019-02-28T22:55:47.470Z,69.20
2019-02-28T22:58:16.550Z,68.90
2019-02-28T23:01:07.088Z,68.80
2019-02-28T23:03:38.442Z,69.40
2019-02-28T23:06:07.914Z,69.50
2019-02-28T23:08:36.951Z,69.70
2019-02-28T23:11:06.457Z,70.00
2019-02-28T23:13:35.494Z,70.30
2019-02-28T23:16:04.495Z,70.30
2019-02-28T23:18:33.855Z,70.40
2019-02-28T23:21:03.403Z,70.20
2019-02-28T23:23:32.449Z,70.40
2019-02-28T23:26:13.420Z,70.50
2019-02-28T23:29:16.138Z,70.80
2019-02-28T23:32:20.434Z,71.00
2019-02-28T23:34:52.159Z,71.00
2019-02-28T23:37:21.195Z,71.00
2019-02-28T23:39:50.651Z,71.10
2019-02-28T23:42:19.626Z,71.10
2019-02-28T23:44:48.600Z,71.10
2019-02-28T23:47:17.741Z,71.20
2019-02-28T23:49:46.894Z,71.40
2019-02-28T23:52:15.866Z,71.40
2019-02-28T23:54:44.922Z,71.40
2019-02-28T23:57:13.975Z,71.50
2019-02-28T23:59:43.052Z,71.60
